Time;durP1;ratioP1;P1;durP2;ratioP2;P2;SDS_P1;SDS_P2;PMS_P1;PMS_P2;Temp;Humidity;BMP_temperature;BMP_pressure;BME280_temperature;BME280_humidity;BME280_pressure;Samples;Min_cycle;Max_cycle;Signal;HPM_P1;HPM_P2
2023/04/24 00:00:01;;;;;;;12.20;12.00;;;13.10;99.90;;;;;;5052744;28;20857;-83
2023/04/24 00:02:30;;;;;;;11.77;11.57;;;13.10;99.90;;;;;;5056179;28;20521;-82
2023/04/24 00:05:02;;;;;;;11.97;11.77;;;13.10;99.90;;;;;;5058386;28;20535;-83
2023/04/24 00:07:30;;;;;;;12.43;12.13;;;13.10;99.90;;;;;;5054397;28;20446;-82
2023/04/24 00:10:00;;;;;;;12.57;12.07;;;13.10;99.90;;;;;;5057164;28;20486;-82
2023/04/24 00:12:28;;;;;;;12.00;11.80;;;13.10;99.90;;;;;;5058086;28;20449;-83
2023/04/24 00:14:56;;;;;;;11.93;11.73;;;13.10;99.90;;;;;;5054053;28;20482;-83
2023/04/24 00:17:24;;;;;;;12.03;11.80;;;13.00;99.90;;;;;;5052756;28;21478;-82
2023/04/24 00:19:58;;;;;;;11.90;11.70;;;13.00;99.90;;;;;;5041351;28;21125;-82
2023/04/24 00:22:27;;;;;;;12.10;11.90;;;13.00;99.90;;;;;;5052779;28;21057;-83
2023/04/24 00:24:55;;;;;;;12.27;11.97;;;13.10;99.90;;;;;;5050406;28;20522;-83
2023/04/24 00:27:25;;;;;;;12.17;11.97;;;13.10;99.90;;;;;;5052516;28;20462;-84
2023/04/24 00:29:53;;;;;;;12.40;12.10;;;13.10;99.90;;;;;;5053491;28;20474;-83
2023/04/24 00:32:21;;;;;;;12.23;11.93;;;13.10;99.90;;;;;;5050713;28;20449;-84
2023/04/24 00:34:49;;;;;;;12.30;12.00;;;13.10;99.90;;;;;;5055410;28;20524;-83
2023/04/24 00:37:17;;;;;;;12.10;11.90;;;13.10;99.90;;;;;;5054075;28;20856;-84
2023/04/24 00:39:46;;;;;;;11.90;11.70;;;13.10;94.70;;;;;;5051228;28;20457;-84
2023/04/24 00:42:14;;;;;;;11.83;11.63;;;13.10;99.90;;;;;;5050294;28;20450;-84
2023/04/24 00:44:44;;;;;;;12.63;12.30;;;13.10;99.90;;;;;;5052097;28;20469;-83
2023/04/24 00:47:13;;;;;;;12.17;11.87;;;13.10;99.90;;;;;;5054155;28;20451;-85
2023/04/24 00:49:41;;;;;;;12.10;11.90;;;13.10;99.90;;;;;;5058302;28;20975;-84
2023/04/24 00:52:10;;;;;;;11.93;11.73;;;13.10;99.90;;;;;;5054883;28;20553;-84
2023/04/24 00:54:38;;;;;;;11.90;11.60;;;13.10;87.70;;;;;;5051723;28;20474;-85
2023/04/24 00:57:07;;;;;;;11.63;11.33;;;13.10;99.50;;;;;;5054121;28;20510;-85
2023/04/24 00:59:36;;;;;;;11.90;11.70;;;13.10;95.30;;;;;;5055062;28;20463;-85
2023/04/24 01:02:06;;;;;;;11.87;11.40;;;13.10;99.90;;;;;;5054042;28;20476;-85
2023/04/24 01:04:34;;;;;;;10.53;10.33;;;13.10;99.90;;;;;;5054043;28;20487;-85
2023/04/24 01:07:03;;;;;;;10.77;10.57;;;13.00;99.90;;;;;;5057573;28;21062;-85
2023/04/24 01:09:31;;;;;;;11.07;10.70;;;13.10;99.90;;;;;;5061151;28;20459;-85
2023/04/24 01:12:00;;;;;;;11.27;11.00;;;13.10;99.90;;;;;;5056733;28;20464;-85
2023/04/24 01:14:29;;;;;;;10.90;10.70;;;13.00;99.90;;;;;;5056837;28;20479;-85
2023/04/24 01:16:58;;;;;;;10.70;10.50;;;13.10;99.90;;;;;;5058229;28;20462;-85
2023/04/24 01:19:28;;;;;;;11.23;11.00;;;13.10;99.90;;;;;;5061284;28;20461;-85
2023/04/24 01:22:02;;;;;;;11.40;11.00;;;13.00;99.90;;;;;;5064435;28;20462;-83
2023/04/24 01:24:32;;;;;;;10.80;10.60;;;13.10;99.90;;;;;;5055555;28;21020;-83
2023/04/24 01:27:01;;;;;;;10.57;10.37;;;13.10;99.90;;;;;;5057117;28;20471;-83
2023/04/24 01:29:29;;;;;;;10.40;10.20;;;13.10;99.90;;;;;;5054448;28;20485;-85
2023/04/24 01:31:58;;;;;;;10.57;10.37;;;13.10;99.90;;;;;;5056408;28;20467;-84
2023/04/24 01:34:27;;;;;;;10.60;10.40;;;13.10;99.90;;;;;;5054599;28;20536;-84
2023/04/24 01:36:56;;;;;;;10.73;10.43;;;13.10;99.90;;;;;;5054689;28;20445;-84
2023/04/24 01:39:25;;;;;;;11.80;11.50;;;13.10;99.90;;;;;;5058878;28;20532;-84
2023/04/24 01:41:55;;;;;;;12.00;11.73;;;13.10;99.90;;;;;;5052701;28;20458;-85
2023/04/24 01:44:24;;;;;;;12.13;11.93;;;13.10;99.90;;;;;;5057183;28;20485;-84
2023/04/24 01:46:53;;;;;;;11.90;11.70;;;13.10;99.90;;;;;;5056452;28;21315;-85
2023/04/24 01:49:22;;;;;;;12.20;11.90;;;13.10;99.90;;;;;;5054626;28;20592;-85
2023/04/24 01:51:50;;;;;;;12.33;12.00;;;13.00;99.90;;;;;;5054561;28;20513;-84
2023/04/24 01:54:19;;;;;;;12.20;11.90;;;13.10;99.90;;;;;;5059104;28;20486;-84
2023/04/24 01:56:48;;;;;;;12.30;12.00;;;13.00;99.90;;;;;;5058641;28;20462;-85
2023/04/24 01:59:18;;;;;;;12.30;12.00;;;13.00;99.90;;;;;;5060282;28;20581;-86
2023/04/24 02:01:46;;;;;;;12.40;12.10;;;13.00;99.90;;;;;;5057070;28;20478;-85
2023/04/24 02:04:15;;;;;;;11.47;11.20;;;13.00;99.90;;;;;;5060291;28;20459;-85
2023/04/24 02:06:43;;;;;;;11.50;11.20;;;12.90;99.90;;;;;;5057993;28;21260;-85
2023/04/24 02:09:11;;;;;;;11.80;11.50;;;12.90;1.00;;;;;;5057432;28;20458;-84
2023/04/24 02:11:40;;;;;;;11.50;11.20;;;12.70;1.00;;;;;;5061556;28;20490;-85
2023/04/24 02:14:08;;;;;;;11.47;11.17;;;12.80;1.00;;;;;;5056411;28;20475;-84
2023/04/24 02:16:37;;;;;;;11.60;11.40;;;12.80;1.00;;;;;;5048171;28;20523;-84
2023/04/24 02:19:06;;;;;;;11.97;11.77;;;12.70;1.00;;;;;;5054904;28;20454;-85
2023/04/24 02:21:34;;;;;;;11.23;11.00;;;12.70;1.00;;;;;;5059655;28;20507;-85
2023/04/24 02:24:02;;;;;;;11.20;11.00;;;12.70;1.00;;;;;;5056618;28;21074;-85
2023/04/24 02:26:31;;;;;;;11.70;11.50;;;12.70;1.00;;;;;;5057832;28;20460;-85
2023/04/24 02:28:59;;;;;;;11.50;11.30;;;12.70;99.90;;;;;;5060258;28;20454;-85
2023/04/24 02:31:28;;;;;;;11.57;11.37;;;12.70;1.00;;;;;;5054931;28;20482;-85
2023/04/24 02:33:57;;;;;;;11.47;11.17;;;12.70;44.10;;;;;;5055295;28;20466;-84
2023/04/24 02:36:26;;;;;;;11.20;10.90;;;12.70;99.90;;;;;;5055799;28;20825;-85
2023/04/24 02:38:54;;;;;;;11.60;11.30;;;12.70;99.90;;;;;;5055310;28;20463;-85
2023/04/24 02:41:22;;;;;;;11.63;11.43;;;12.70;70.00;;;;;;5053820;28;20543;-85
2023/04/24 02:43:50;;;;;;;11.40;11.20;;;12.70;99.90;;;;;;5052472;28;20478;-85
2023/04/24 02:46:19;;;;;;;12.53;11.90;;;12.70;46.80;;;;;;5054636;28;20549;-85
2023/04/24 02:48:47;;;;;;;11.63;11.33;;;12.80;1.00;;;;;;5057916;28;20454;-84
2023/04/24 02:51:17;;;;;;;11.27;11.07;;;12.80;1.00;;;;;;5056616;28;20833;-85
2023/04/24 02:53:45;;;;;;;11.47;11.20;;;12.80;1.00;;;;;;5057712;28;20474;-84
2023/04/24 02:56:13;;;;;;;11.70;11.40;;;12.80;1.00;;;;;;5056334;28;20560;-85
2023/04/24 02:58:42;;;;;;;11.70;11.40;;;12.80;6.60;;;;;;5052333;28;20973;-86
2023/04/24 03:01:10;;;;;;;11.80;11.60;;;12.90;1.00;;;;;;5046254;28;20502;-85
2023/04/24 03:03:39;;;;;;;12.30;12.00;;;12.80;99.90;;;;;;5049041;28;20508;-86
2023/04/24 03:06:08;;;;;;;12.53;12.23;;;12.70;99.90;;;;;;5057206;28;20458;-86
2023/04/24 03:08:38;;;;;;;12.07;11.77;;;12.70;20.90;;;;;;5055872;28;20562;-85
2023/04/24 03:11:06;;;;;;;12.20;11.90;;;12.60;1.00;;;;;;5054458;28;20485;-85
2023/04/24 03:13:35;;;;;;;12.00;11.77;;;12.60;36.10;;;;;;5055606;28;20466;-86
2023/04/24 03:16:03;;;;;;;12.00;11.80;;;12.50;99.90;;;;;;5055151;28;20528;-85
2023/04/24 03:18:31;;;;;;;12.80;12.40;;;12.50;99.90;;;;;;5053633;28;20493;-85
2023/04/24 03:20:59;;;;;;;12.90;12.60;;;12.50;99.90;;;;;;5058271;28;20750;-85
2023/04/24 03:23:28;;;;;;;13.13;12.83;;;12.50;99.90;;;;;;5054425;28;20458;-84
2023/04/24 03:25:57;;;;;;;13.10;12.80;;;12.50;99.90;;;;;;5053421;28;20809;-84
2023/04/24 03:28:26;;;;;;;13.00;12.70;;;12.50;1.00;;;;;;5054650;28;21013;-84
2023/04/24 03:30:54;;;;;;;13.27;12.97;;;12.50;88.10;;;;;;5051604;28;21351;-85
2023/04/24 03:33:22;;;;;;;13.60;13.30;;;12.50;99.90;;;;;;5053581;28;20457;-84
2023/04/24 03:35:50;;;;;;;13.30;13.00;;;12.50;1.00;;;;;;5054999;28;20489;-84
2023/04/24 03:38:18;;;;;;;13.20;12.80;;;12.40;1.00;;;;;;5053348;28;20456;-84
2023/04/24 03:40:47;;;;;;;13.10;12.70;;;12.30;99.90;;;;;;5043698;28;21329;-84
2023/04/24 03:43:16;;;;;;;13.13;12.73;;;12.30;99.90;;;;;;5052878;28;21491;-85
2023/04/24 03:45:44;;;;;;;13.17;12.87;;;12.30;99.90;;;;;;5052219;28;20462;-83
2023/04/24 03:48:13;;;;;;;12.97;12.57;;;12.30;1.00;;;;;;5055028;28;21136;-85
2023/04/24 03:50:41;;;;;;;13.03;12.57;;;12.20;99.90;;;;;;5053017;28;20472;-84
2023/04/24 03:53:09;;;;;;;12.97;12.57;;;12.20;99.90;;;;;;5052237;28;20453;-85
2023/04/24 03:55:37;;;;;;;12.57;12.37;;;12.20;99.90;;;;;;5055332;28;21202;-85
2023/04/24 03:58:06;;;;;;;13.30;13.00;;;12.10;99.90;;;;;;5058186;28;20449;-85
2023/04/24 04:00:37;;;;;;;13.03;12.40;;;12.20;99.90;;;;;;5067088;28;20857;-85
2023/04/24 04:03:05;;;;;;;12.43;12.13;;;12.30;99.90;;;;;;5051859;28;20465;-84
2023/04/24 04:05:34;;;;;;;13.20;12.60;;;12.30;1.00;;;;;;5053695;28;20442;-84
2023/04/24 04:08:02;;;;;;;13.20;12.90;;;12.30;1.00;;;;;;5056507;28;20461;-86
2023/04/24 04:10:30;;;;;;;13.20;12.90;;;12.30;1.00;;;;;;5055566;28;20478;-85
2023/04/24 04:12:58;;;;;;;13.17;12.87;;;12.30;99.90;;;;;;5058141;28;20478;-84
2023/04/24 04:15:27;;;;;;;13.30;13.10;;;12.30;1.00;;;;;;5053470;28;20472;-84
2023/04/24 04:17:56;;;;;;;12.87;12.57;;;12.30;99.90;;;;;;5055369;28;20462;-83
2023/04/24 04:20:25;;;;;;;13.30;13.00;;;12.40;99.90;;;;;;5049056;28;20537;-83
2023/04/24 04:22:53;;;;;;;13.50;13.20;;;12.30;99.90;;;;;;5052633;28;20447;-83
2023/04/24 04:25:21;;;;;;;13.23;12.93;;;12.30;1.00;;;;;;5054013;28;20461;-83
2023/04/24 04:27:50;;;;;;;13.67;13.30;;;12.40;1.00;;;;;;5050887;28;20511;-85
2023/04/24 04:30:20;;;;;;;13.47;13.17;;;12.40;84.80;;;;;;5053215;28;20465;-85
2023/04/24 04:32:49;;;;;;;13.60;13.30;;;12.30;1.00;;;;;;5056453;28;20449;-85
2023/04/24 04:35:18;;;;;;;13.60;13.20;;;12.20;1.00;;;;;;5055288;28;20488;-86
2023/04/24 04:37:46;;;;;;;13.30;13.00;;;12.20;1.00;;;;;;5055126;28;20512;-84
2023/04/24 04:40:15;;;;;;;13.47;13.17;;;12.10;1.00;;;;;;5053583;28;21052;-83
2023/04/24 04:42:45;;;;;;;13.50;13.10;;;12.10;1.00;;;;;;5054771;28;20450;-83
2023/04/24 04:45:16;;;;;;;13.37;12.97;;;12.10;1.00;;;;;;5056587;28;20447;-85
2023/04/24 04:47:45;;;;;;;13.60;13.20;;;12.00;1.00;;;;;;5053213;28;20456;-84
2023/04/24 04:50:13;;;;;;;13.43;13.13;;;11.90;94.70;;;;;;5054155;28;20487;-84
2023/04/24 04:52:43;;;;;;;13.33;13.03;;;12.00;1.00;;;;;;5056185;28;20458;-83
2023/04/24 04:55:13;;;;;;;13.70;13.40;;;12.00;1.00;;;;;;5060324;28;20468;-82
2023/04/24 04:57:41;;;;;;;13.53;13.23;;;11.90;1.00;;;;;;5061290;28;20448;-83
2023/04/24 05:00:11;;;;;;;13.97;13.67;;;11.90;1.00;;;;;;5058179;28;20476;-83
2023/04/24 05:02:40;;;;;;;14.90;14.40;;;11.90;1.00;;;;;;5059708;28;20472;-85
2023/04/24 05:05:09;;;;;;;13.90;13.53;;;11.90;1.00;;;;;;5049361;28;20456;-83
2023/04/24 05:07:37;;;;;;;14.33;13.93;;;11.90;1.00;;;;;;5071325;28;20497;-82
2023/04/24 05:10:09;;;;;;;14.33;13.93;;;11.90;1.00;;;;;;5044436;28;20488;-84
2023/04/24 05:12:37;;;;;;;14.37;14.00;;;11.90;99.90;;;;;;5059892;28;20490;-83
2023/04/24 05:15:06;;;;;;;14.20;13.90;;;11.90;74.90;;;;;;5049502;28;20473;-83
2023/04/24 05:17:34;;;;;;;13.73;13.30;;;11.90;1.00;;;;;;5057409;28;20548;-82
2023/04/24 05:20:05;;;;;;;13.97;13.67;;;11.90;1.00;;;;;;5061625;28;20507;-83
2023/04/24 05:22:35;;;;;;;14.50;13.80;;;11.90;1.00;;;;;;5064772;28;20559;-84
2023/04/24 05:25:04;;;;;;;13.70;13.40;;;11.90;1.00;;;;;;5061804;28;20462;-83
2023/04/24 05:27:33;;;;;;;13.90;13.60;;;12.00;1.00;;;;;;5063812;28;20443;-83
2023/04/24 05:30:01;;;;;;;14.47;13.87;;;12.00;1.00;;;;;;5064791;28;20484;-81
2023/04/24 05:32:30;;;;;;;13.97;13.67;;;12.00;1.00;;;;;;5062155;28;20850;-84
2023/04/24 05:34:58;;;;;;;14.40;14.00;;;12.00;1.00;;;;;;5065735;28;20539;-83
2023/04/24 05:37:26;;;;;;;14.17;13.77;;;12.00;1.00;;;;;;5064079;28;20479;-82
2023/04/24 05:39:55;;;;;;;14.43;14.03;;;12.10;99.90;;;;;;5067681;28;20473;-83
2023/04/24 05:42:23;;;;;;;13.70;13.30;;;12.10;99.90;;;;;;5067902;28;20471;-83
2023/04/24 05:44:53;;;;;;;14.10;13.60;;;12.10;99.90;;;;;;5064702;28;20455;-83
2023/04/24 05:47:26;;;;;;;13.10;12.80;;;12.00;99.90;;;;;;5065044;28;21047;-83
2023/04/24 05:49:54;;;;;;;13.70;13.10;;;12.00;99.90;;;;;;5066431;28;21473;-83
2023/04/24 05:52:22;;;;;;;13.40;13.10;;;11.90;99.90;;;;;;5066965;28;20524;-83
2023/04/24 05:54:50;;;;;;;13.43;13.03;;;12.00;99.90;;;;;;5066120;28;21804;-83
2023/04/24 05:57:18;;;;;;;13.00;12.70;;;12.00;99.90;;;;;;5066929;28;20497;-82
2023/04/24 05:59:46;;;;;;;13.57;13.20;;;12.00;99.90;;;;;;5064990;28;20832;-82
2023/04/24 06:02:16;;;;;;;13.50;13.00;;;12.00;99.90;;;;;;5062884;28;20441;-83
2023/04/24 06:04:45;;;;;;;13.87;13.27;;;12.00;99.90;;;;;;5064228;28;20446;-83
2023/04/24 06:07:14;;;;;;;13.87;13.47;;;12.00;99.90;;;;;;5060328;28;20482;-82
2023/04/24 06:09:42;;;;;;;13.60;13.30;;;12.00;99.90;;;;;;5054174;28;26166;-82
2023/04/24 06:12:11;;;;;;;13.33;13.00;;;11.90;99.90;;;;;;5051377;28;20522;-87
2023/04/24 06:14:39;;;;;;;13.33;13.03;;;12.10;99.90;;;;;;5077635;28;20543;-83
2023/04/24 06:17:07;;;;;;;13.80;13.50;;;12.40;99.90;;;;;;5060716;28;20485;-83
2023/04/24 06:19:36;;;;;;;13.67;13.37;;;12.70;99.90;;;;;;5061054;28;20458;-83
2023/04/24 06:22:05;;;;;;;13.90;13.50;;;12.90;34.50;;;;;;5059013;28;20458;-85
2023/04/24 06:24:34;;;;;;;13.60;13.30;;;13.20;1.00;;;;;;5059033;28;20858;-83
2023/04/24 06:27:02;;;;;;;14.00;13.60;;;13.10;1.00;;;;;;5058814;28;20471;-83
2023/04/24 06:29:31;;;;;;;14.70;14.20;;;13.40;1.00;;;;;;5059172;28;20489;-84
2023/04/24 06:31:59;;;;;;;13.57;13.27;;;13.50;1.00;;;;;;5056999;28;20827;-83
2023/04/24 06:34:27;;;;;;;13.40;13.10;;;13.40;1.00;;;;;;5058734;28;20486;-83
2023/04/24 06:36:57;;;;;;;13.50;13.07;;;13.50;1.00;;;;;;5059003;28;20469;-84
2023/04/24 06:39:26;;;;;;;12.93;12.63;;;13.40;1.00;;;;;;5055078;28;20470;-84
2023/04/24 06:41:55;;;;;;;13.03;12.73;;;13.40;1.00;;;;;;5059462;28;20482;-83
2023/04/24 06:44:23;;;;;;;13.70;13.40;;;13.50;1.00;;;;;;5058576;28;20462;-84
2023/04/24 06:46:52;;;;;;;14.00;13.60;;;14.00;1.00;;;;;;5059918;28;20471;-84
2023/04/24 06:49:20;;;;;;;13.70;13.30;;;14.40;1.00;;;;;;5056189;28;20975;-84
2023/04/24 06:51:48;;;;;;;14.03;13.53;;;14.60;99.90;;;;;;5059290;28;20530;-85
2023/04/24 06:54:18;;;;;;;14.37;13.87;;;14.60;99.90;;;;;;5057620;28;20452;-83
2023/04/24 06:56:47;;;;;;;14.00;13.60;;;14.70;99.90;;;;;;5054142;28;20466;-84
2023/04/24 06:59:15;;;;;;;14.00;13.40;;;14.60;99.90;;;;;;5056035;28;20465;-83
2023/04/24 07:01:44;;;;;;;14.67;14.10;;;14.40;99.90;;;;;;5055440;28;20482;-84
2023/04/24 07:04:12;;;;;;;14.23;13.83;;;14.40;99.90;;;;;;5057496;28;20476;-84
2023/04/24 07:06:41;;;;;;;14.43;14.03;;;14.20;99.90;;;;;;5057790;28;20458;-83
2023/04/24 07:09:10;;;;;;;13.80;13.30;;;14.00;99.90;;;;;;5054711;28;20477;-82
2023/04/24 07:11:40;;;;;;;13.30;13.00;;;13.90;99.90;;;;;;5061949;28;20466;-85
2023/04/24 07:14:08;;;;;;;14.17;13.77;;;13.80;99.90;;;;;;5058578;28;20459;-86
2023/04/24 07:16:37;;;;;;;13.53;13.13;;;13.70;99.90;;;;;;5057341;28;20553;-87
2023/04/24 07:19:05;;;;;;;13.50;13.20;;;13.60;99.90;;;;;;5072418;28;21066;-86
2023/04/24 07:21:33;;;;;;;13.40;13.10;;;13.50;99.90;;;;;;5059952;28;20486;-86
2023/04/24 07:24:01;;;;;;;14.10;13.40;;;13.50;99.90;;;;;;5059757;28;20552;-86
2023/04/24 07:26:31;;;;;;;13.20;12.90;;;13.50;99.90;;;;;;5060744;28;20532;-85
2023/04/24 07:29:00;;;;;;;13.43;13.10;;;13.60;99.90;;;;;;5060176;28;20442;-86
2023/04/24 07:31:28;;;;;;;13.30;12.80;;;13.70;99.90;;;;;;5059240;28;21087;-85
2023/04/24 07:34:00;;;;;;;13.70;13.40;;;13.90;99.90;;;;;;5058527;28;20484;-85
2023/04/24 07:36:28;;;;;;;12.90;12.60;;;14.00;99.90;;;;;;5060326;28;20470;-85
2023/04/24 07:38:57;;;;;;;13.57;13.27;;;14.20;99.90;;;;;;5060958;28;20475;-85
2023/04/24 07:41:25;;;;;;;14.00;13.70;;;14.40;99.90;;;;;;5061259;28;20476;-85
2023/04/24 07:43:53;;;;;;;13.63;13.33;;;14.40;99.90;;;;;;5064784;28;20496;-85
2023/04/24 07:46:24;;;;;;;14.10;13.70;;;14.50;99.90;;;;;;5062969;28;20493;-84
2023/04/24 07:48:53;;;;;;;13.83;13.43;;;14.50;99.90;;;;;;5057565;28;20439;-84
2023/04/24 07:51:40;;;;;;;13.97;13.67;;;14.60;99.90;;;;;;5059376;28;20474;-86
2023/04/24 07:54:08;;;;;;;13.50;13.00;;;14.60;99.90;;;;;;5061943;28;20443;-85
2023/04/24 07:56:38;;;;;;;13.53;13.13;;;14.60;99.90;;;;;;5090844;28;20483;-84
2023/04/24 07:59:07;;;;;;;13.53;13.23;;;14.60;99.90;;;;;;5060435;28;20470;-84
2023/04/24 08:01:37;;;;;;;13.60;13.30;;;14.60;99.90;;;;;;5057734;28;20836;-85
2023/04/24 08:04:05;;;;;;;13.93;13.63;;;14.60;99.90;;;;;;5058084;28;20458;-84
2023/04/24 08:06:34;;;;;;;13.00;12.70;;;14.70;99.90;;;;;;5063167;28;20443;-84
2023/04/24 08:09:02;;;;;;;13.67;13.13;;;14.50;99.90;;;;;;5058218;28;20444;-85
2023/04/24 08:11:31;;;;;;;12.93;12.53;;;14.50;99.90;;;;;;5050697;28;20510;-85
2023/04/24 08:13:59;;;;;;;13.13;12.50;;;14.40;99.90;;;;;;5053426;28;20533;-84
2023/04/24 08:16:28;;;;;;;12.83;12.43;;;14.40;99.90;;;;;;5053781;28;20888;-85
2023/04/24 08:18:58;;;;;;;13.20;12.80;;;14.40;99.90;;;;;;5053442;28;20492;-84
2023/04/24 08:21:27;;;;;;;12.93;12.60;;;14.40;99.90;;;;;;5055273;28;20835;-84
2023/04/24 08:23:55;;;;;;;13.53;13.23;;;14.50;99.90;;;;;;5057824;28;20538;-86
2023/04/24 08:26:24;;;;;;;12.87;12.57;;;14.60;99.90;;;;;;5060422;28;20497;-85
2023/04/24 08:28:52;;;;;;;13.00;12.70;;;14.70;99.90;;;;;;5058656;28;20447;-85
2023/04/24 08:31:22;;;;;;;13.40;12.83;;;14.80;99.90;;;;;;5057734;28;20467;-85
2023/04/24 08:33:51;;;;;;;12.60;12.20;;;14.90;99.90;;;;;;5059342;28;20458;-84
2023/04/24 08:36:21;;;;;;;12.77;12.47;;;15.00;99.90;;;;;;5060204;28;20467;-85
2023/04/24 08:38:53;;;;;;;12.70;12.30;;;15.10;99.90;;;;;;5056197;28;20473;-84
2023/04/24 08:41:24;;;;;;;12.43;12.23;;;15.00;99.90;;;;;;5063016;28;20857;-85
2023/04/24 08:43:52;;;;;;;12.60;12.30;;;14.90;99.90;;;;;;5056740;28;20555;-83
2023/04/24 08:46:21;;;;;;;11.57;11.23;;;14.80;99.90;;;;;;5058083;28;20467;-84
2023/04/24 08:48:51;;;;;;;11.87;11.57;;;14.50;99.90;;;;;;5053868;28;20456;-84
2023/04/24 08:51:21;;;;;;;11.57;11.30;;;14.30;99.90;;;;;;5057335;28;20457;-83
2023/04/24 08:53:50;;;;;;;12.20;11.90;;;14.30;99.90;;;;;;5057166;28;20447;-84
2023/04/24 08:56:18;;;;;;;11.90;11.60;;;14.20;99.90;;;;;;5063590;28;20912;-84
2023/04/24 08:58:47;;;;;;;11.87;11.50;;;14.10;99.90;;;;;;5064652;28;20474;-81
2023/04/24 09:01:16;;;;;;;12.93;12.37;;;14.20;99.90;;;;;;5064146;28;21111;-80
2023/04/24 09:03:44;;;;;;;12.03;11.83;;;14.30;99.90;;;;;;5063370;28;20493;-80
2023/04/24 09:06:13;;;;;;;12.00;11.70;;;14.40;99.90;;;;;;5055780;28;20475;-81
2023/04/24 09:08:44;;;;;;;11.70;11.40;;;14.50;99.90;;;;;;5060284;28;20532;-80
2023/04/24 09:11:13;;;;;;;11.70;11.40;;;14.40;99.90;;;;;;5054675;28;20473;-82
2023/04/24 09:13:42;;;;;;;11.40;11.00;;;14.30;99.90;;;;;;5053694;28;20470;-80
2023/04/24 09:16:10;;;;;;;10.77;10.57;;;14.20;99.90;;;;;;5055386;28;20452;-80
2023/04/24 09:18:38;;;;;;;10.93;10.73;;;14.20;99.90;;;;;;5084155;28;20478;-82
2023/04/24 09:21:09;;;;;;;10.97;10.67;;;14.30;99.90;;;;;;5048345;28;20484;-81
2023/04/24 09:23:38;;;;;;;11.43;11.03;;;14.40;99.90;;;;;;5052669;28;20502;-81
2023/04/24 09:26:10;;;;;;;10.30;10.10;;;14.60;99.90;;;;;;5052644;28;20466;-80
2023/04/24 09:28:40;;;;;;;10.00;9.70;;;14.60;99.90;;;;;;5055788;28;20979;-80
2023/04/24 09:31:13;;;;;;;9.83;9.63;;;14.70;99.90;;;;;;5056379;28;20478;-81
2023/04/24 09:33:54;;;;;;;9.80;9.40;;;14.70;99.90;;;;;;5055718;28;20548;-83
2023/04/24 09:36:28;;;;;;;9.77;9.43;;;14.80;99.90;;;;;;5053034;28;20526;-83
2023/04/24 09:38:59;;;;;;;10.53;10.13;;;15.00;99.90;;;;;;5069917;28;20983;-83
2023/04/24 09:41:29;;;;;;;9.50;9.20;;;15.00;99.90;;;;;;5055731;28;20493;-83
2023/04/24 09:43:58;;;;;;;9.83;9.63;;;14.90;99.90;;;;;;5057133;28;20832;-83
2023/04/24 09:46:33;;;;;;;9.80;9.60;;;14.80;99.90;;;;;;5058677;28;20456;-83
2023/04/24 09:49:09;;;;;;;9.53;9.33;;;14.90;99.90;;;;;;5055702;28;20795;-82
2023/04/24 09:51:39;;;;;;;9.67;9.37;;;14.80;99.90;;;;;;5056987;28;20455;-82
2023/04/24 09:54:16;;;;;;;9.10;8.70;;;14.60;99.90;;;;;;5057177;28;21132;-83
2023/04/24 09:56:48;;;;;;;8.73;8.50;;;14.50;99.90;;;;;;5056598;28;20447;-83
2023/04/24 09:59:18;;;;;;;8.37;8.27;;;14.50;99.90;;;;;;5058748;28;20473;-84
2023/04/24 10:01:48;;;;;;;9.03;8.73;;;14.50;99.90;;;;;;5057608;28;20479;-83
2023/04/24 10:04:18;;;;;;;9.40;9.10;;;14.50;99.90;;;;;;5058703;28;21249;-83
2023/04/24 10:06:48;;;;;;;8.40;8.20;;;14.70;99.90;;;;;;5056150;28;20477;-84
2023/04/24 10:09:17;;;;;;;9.10;8.90;;;14.80;99.90;;;;;;5075606;28;20451;-82
2023/04/24 10:11:48;;;;;;;8.83;8.63;;;14.90;99.90;;;;;;5065866;28;20487;-83
2023/04/24 10:14:18;;;;;;;8.60;8.40;;;14.80;99.90;;;;;;5061540;28;20456;-82
2023/04/24 10:16:48;;;;;;;8.60;8.40;;;14.90;99.90;;;;;;5062137;28;20428;-83
2023/04/24 10:19:18;;;;;;;8.30;8.00;;;15.10;99.90;;;;;;5057224;28;20483;-86
2023/04/24 10:21:47;;;;;;;8.70;8.50;;;15.20;99.90;;;;;;5062839;28;20480;-85
2023/04/24 10:24:16;;;;;;;9.23;9.03;;;15.20;99.90;;;;;;5060144;28;20454;-87
2023/04/24 10:26:48;;;;;;;8.70;8.50;;;15.10;99.90;;;;;;5059584;28;20548;-85
2023/04/24 10:29:18;;;;;;;8.27;8.17;;;15.20;99.90;;;;;;5059910;28;20444;-85
2023/04/24 10:31:47;;;;;;;8.60;8.40;;;15.10;99.90;;;;;;5059339;28;20482;-84
2023/04/24 10:34:18;;;;;;;8.93;8.73;;;15.10;99.90;;;;;;5060673;28;20452;-85
2023/04/24 10:36:51;;;;;;;8.80;8.50;;;15.30;99.90;;;;;;5073029;28;20449;-84
2023/04/24 10:39:22;;;;;;;7.90;7.80;;;15.40;99.90;;;;;;5061403;28;20473;-84
2023/04/24 10:41:57;;;;;;;9.37;9.07;;;15.30;99.90;;;;;;5064579;28;20477;-84
2023/04/24 10:44:26;;;;;;;9.80;9.53;;;15.30;99.90;;;;;;5062247;28;20569;-86
2023/04/24 10:46:56;;;;;;;8.77;8.57;;;15.40;99.90;;;;;;5065640;28;20543;-84
2023/04/24 10:49:30;;;;;;;9.00;8.80;;;15.40;99.90;;;;;;5065251;28;20940;-85
2023/04/24 10:52:04;;;;;;;8.30;8.10;;;15.40;99.90;;;;;;5062895;28;20463;-87
2023/04/24 10:54:36;;;;;;;8.50;8.30;;;15.20;99.90;;;;;;5058732;28;20451;-84
2023/04/24 10:57:30;;;;;;;8.10;8.00;;;14.90;99.90;;;;;;5064698;28;20479;-84
2023/04/24 11:00:19;;;;;;;8.40;8.20;;;14.70;99.90;;;;;;5065287;28;20480;-86
2023/04/24 11:02:52;;;;;;;8.20;8.10;;;14.90;99.90;;;;;;5061524;28;20575;-85
2023/04/24 11:05:22;;;;;;;8.80;8.60;;;14.90;99.90;;;;;;5057974;28;20446;-85
2023/04/24 11:08:13;;;;;;;8.80;8.50;;;14.90;99.90;;;;;;5056614;28;20454;-83
2023/04/24 11:10:41;;;;;;;8.93;8.73;;;15.00;99.90;;;;;;5063506;28;20279;-82
2023/04/24 11:13:11;;;;;;;8.40;8.20;;;15.00;99.90;;;;;;5059591;28;20467;-83
2023/04/24 11:15:43;;;;;;;8.83;8.63;;;15.00;99.90;;;;;;5060694;28;20435;-84
2023/04/24 11:18:15;;;;;;;9.60;9.00;;;14.70;99.90;;;;;;5063008;28;20456;-84
2023/04/24 11:20:44;;;;;;;8.23;8.03;;;14.60;99.90;;;;;;5058839;28;21103;-83
2023/04/24 11:23:14;;;;;;;8.63;8.43;;;14.60;99.90;;;;;;5056091;28;20519;-82
2023/04/24 11:25:43;;;;;;;8.40;8.20;;;14.60;99.90;;;;;;5061720;28;20463;-82
2023/04/24 11:28:17;;;;;;;8.70;8.50;;;14.60;99.90;;;;;;5062639;28;20443;-83
2023/04/24 11:30:45;;;;;;;8.80;8.60;;;14.60;99.90;;;;;;5062677;28;20476;-83
2023/04/24 11:33:21;;;;;;;8.40;8.20;;;14.40;99.90;;;;;;5060595;28;20443;-83
2023/04/24 11:35:49;;;;;;;8.47;8.27;;;14.30;99.90;;;;;;5061688;28;20512;-84
2023/04/24 11:38:18;;;;;;;8.67;8.47;;;14.30;99.90;;;;;;5064086;28;20457;-84
2023/04/24 11:40:53;;;;;;;8.43;8.33;;;14.30;99.90;;;;;;5063360;28;20503;-84
2023/04/24 11:43:23;;;;;;;8.23;7.97;;;14.30;99.90;;;;;;5058235;28;20928;-83
2023/04/24 11:45:51;;;;;;;8.43;8.13;;;14.30;99.90;;;;;;5064811;28;20453;-83
2023/04/24 11:48:21;;;;;;;8.40;8.20;;;14.20;99.90;;;;;;5061421;28;20463;-83
2023/04/24 11:50:51;;;;;;;8.50;8.30;;;14.30;99.90;;;;;;5061306;28;20472;-83
2023/04/24 11:53:21;;;;;;;8.63;8.33;;;14.40;99.90;;;;;;5054389;28;20446;-83
2023/04/24 11:55:49;;;;;;;7.80;7.70;;;14.50;99.90;;;;;;5059498;28;20987;-83
2023/04/24 11:58:23;;;;;;;8.20;8.07;;;14.60;99.90;;;;;;5061137;28;20865;-83
2023/04/24 12:00:57;;;;;;;9.27;8.70;;;14.60;99.90;;;;;;5054054;28;20491;-83
2023/04/24 12:03:26;;;;;;;8.40;8.20;;;14.50;99.90;;;;;;5058982;28;20554;-84
2023/04/24 12:06:06;;;;;;;8.40;8.20;;;14.40;99.90;;;;;;5059862;28;20455;-83
2023/04/24 12:08:35;;;;;;;8.30;8.00;;;14.30;99.90;;;;;;5059258;28;20512;-83
2023/04/24 12:11:07;;;;;;;8.33;8.13;;;14.10;99.90;;;;;;5055484;28;20474;-84
2023/04/24 12:13:37;;;;;;;8.03;7.83;;;14.10;99.90;;;;;;5057361;28;20447;-84
2023/04/24 12:16:06;;;;;;;7.97;7.70;;;14.00;99.90;;;;;;5059305;28;20459;-82
2023/04/24 12:18:34;;;;;;;8.00;7.80;;;14.10;99.90;;;;;;5056877;28;20510;-83
2023/04/24 12:21:16;;;;;;;7.77;7.60;;;14.10;99.90;;;;;;5056357;28;20487;-83
2023/04/24 12:23:48;;;;;;;7.77;7.57;;;14.20;99.90;;;;;;5056507;28;21041;-82
2023/04/24 12:26:22;;;;;;;7.60;7.40;;;14.20;99.90;;;;;;5054978;28;20458;-83
2023/04/24 12:28:51;;;;;;;7.70;7.50;;;14.40;99.90;;;;;;5058941;28;21035;-85
2023/04/24 12:31:22;;;;;;;7.90;7.80;;;14.40;99.90;;;;;;5057637;28;20464;-83
2023/04/24 12:33:50;;;;;;;7.90;7.70;;;14.30;99.90;;;;;;5057500;28;20462;-83
2023/04/24 12:36:18;;;;;;;8.43;8.13;;;14.30;99.90;;;;;;5058776;28;20458;-82
2023/04/24 12:38:47;;;;;;;8.20;8.00;;;14.30;99.90;;;;;;5057681;28;20460;-83
2023/04/24 12:41:15;;;;;;;7.90;7.70;;;14.30;99.90;;;;;;5059564;28;20888;-83
2023/04/24 12:43:55;;;;;;;8.60;8.30;;;14.10;99.90;;;;;;5059707;28;20444;-82